createdAt,value
2022-11-23T00:01:36.715Z,54.27
2022-11-23T00:04:11.775Z,54.43
2022-11-23T00:06:41.059Z,54.45
2022-11-23T00:09:11.401Z,54.37
2022-11-23T00:11:39.192Z,54.34
2022-11-23T00:14:07.000Z,54.52
2022-11-23T00:16:34.826Z,54.57
2022-11-23T00:19:02.946Z,54.56
2022-11-23T00:21:33.040Z,54.42
2022-11-23T00:24:01.247Z,54.28
2022-11-23T00:26:29.283Z,54.57
2022-11-23T00:28:57.201Z,54.63
2022-11-23T00:31:27.972Z,54.32
2022-11-23T00:33:57.425Z,54.08
2022-11-23T00:36:27.485Z,54.23
2022-11-23T00:38:56.346Z,54.21
2022-11-23T00:41:27.095Z,54.19
2022-11-23T00:43:55.345Z,54.08
2022-11-23T00:46:26.626Z,53.84
2022-11-23T00:48:57.108Z,53.80
2022-11-23T00:51:32.238Z,53.79
2022-11-23T00:54:01.897Z,53.84
2022-11-23T00:56:31.257Z,53.74
2022-11-23T00:59:01.082Z,54.00
2022-11-23T01:01:36.957Z,53.74
2022-11-23T01:04:08.004Z,53.77
2022-11-23T01:06:40.077Z,53.98
2022-11-23T01:09:17.942Z,53.97
2022-11-23T01:11:46.270Z,53.72
2022-11-23T01:14:14.157Z,53.76
2022-11-23T01:16:42.514Z,54.07
2022-11-23T01:19:21.198Z,54.14
2022-11-23T01:21:51.643Z,54.10
2022-11-23T01:24:22.874Z,54.16
2022-11-23T01:26:55.231Z,54.11
2022-11-23T01:29:24.343Z,54.04
2022-11-23T01:31:52.307Z,53.81
2022-11-23T01:34:20.142Z,53.90
2022-11-23T01:36:47.875Z,53.86
2022-11-23T01:39:16.344Z,54.13
2022-11-23T01:41:46.759Z,54.05
2022-11-23T01:44:43.472Z,54.24
2022-11-23T01:47:11.399Z,54.10
2022-11-23T01:49:51.774Z,54.06
2022-11-23T01:52:26.156Z,54.47
2022-11-23T01:54:58.186Z,54.16
2022-11-23T01:57:32.706Z,54.21
2022-11-23T02:00:02.072Z,54.11
2022-11-23T02:02:47.869Z,54.07
2022-11-23T02:05:22.924Z,53.99
2022-11-23T02:07:51.384Z,54.01
2022-11-23T02:10:21.338Z,54.08
2022-11-23T02:12:49.152Z,54.11
2022-11-23T02:15:17.267Z,53.93
2022-11-23T02:17:46.083Z,53.86
2022-11-23T02:20:18.522Z,54.43
2022-11-23T02:23:04.623Z,54.17
2022-11-23T02:25:46.327Z,54.22
2022-11-23T02:28:26.903Z,54.31
2022-11-23T02:30:55.849Z,54.12
2022-11-23T02:33:25.552Z,54.20
2022-11-23T02:35:59.029Z,54.10
2022-11-23T02:38:32.118Z,54.33
2022-11-23T02:41:00.702Z,54.04
2022-11-23T02:43:28.557Z,53.70
2022-11-23T02:45:59.700Z,54.05
2022-11-23T02:48:27.548Z,54.09
2022-11-23T02:50:55.849Z,54.07
2022-11-23T02:53:25.138Z,54.38
2022-11-23T02:55:55.257Z,54.24
2022-11-23T02:58:25.028Z,54.34
2022-11-23T03:00:52.866Z,54.23
2022-11-23T03:03:20.771Z,54.85
2022-11-23T03:05:48.556Z,54.73
2022-11-23T03:08:16.523Z,54.49
2022-11-23T03:10:44.277Z,54.50
2022-11-23T03:13:12.780Z,54.98
2022-11-23T03:15:41.578Z,54.61
2022-11-23T03:18:10.669Z,54.67
2022-11-23T03:20:39.225Z,54.58
2022-11-23T03:23:07.007Z,54.47
2022-11-23T03:25:34.785Z,54.71
2022-11-23T03:28:04.810Z,54.37
2022-11-23T03:30:34.180Z,54.54
2022-11-23T03:33:04.221Z,54.61
2022-11-23T03:35:32.265Z,54.59
2022-11-23T03:38:23.387Z,54.91
2022-11-23T03:40:52.890Z,54.91
2022-11-23T03:43:33.558Z,55.07
2022-11-23T03:46:01.335Z,54.94
2022-11-23T03:48:29.126Z,54.90
2022-11-23T03:50:57.044Z,54.92
2022-11-23T03:53:25.371Z,54.75
2022-11-23T03:55:55.508Z,54.68
2022-11-23T03:58:25.312Z,54.71
2022-11-23T04:00:53.168Z,54.53
2022-11-23T04:03:21.145Z,54.74
2022-11-23T04:06:07.176Z,54.72
2022-11-23T04:08:58.973Z,54.71
2022-11-23T04:11:44.698Z,54.33
2022-11-23T04:14:12.583Z,54.53
2022-11-23T04:16:40.337Z,54.39
2022-11-23T04:19:08.447Z,54.30
2022-11-23T04:21:37.193Z,54.50
2022-11-23T04:24:05.835Z,54.41
2022-11-23T04:26:36.518Z,54.44
2022-11-23T04:29:04.567Z,54.48
2022-11-23T04:31:34.532Z,54.78
2022-11-23T04:34:11.396Z,54.49
2022-11-23T04:36:40.324Z,54.60
2022-11-23T04:39:12.647Z,54.62
2022-11-23T04:42:06.967Z,54.79
2022-11-23T04:44:35.499Z,54.74
2022-11-23T04:47:05.865Z,54.67
2022-11-23T04:49:37.293Z,54.60
2022-11-23T04:52:05.973Z,54.78
2022-11-23T04:54:38.824Z,54.48
2022-11-23T04:57:10.017Z,54.49
2022-11-23T04:59:39.364Z,54.69
2022-11-23T05:02:07.402Z,54.53
2022-11-23T05:04:48.901Z,54.70
2022-11-23T05:07:18.270Z,54.59
2022-11-23T05:09:52.720Z,54.34
2022-11-23T05:12:22.367Z,54.22
2022-11-23T05:14:51.204Z,54.14
2022-11-23T05:17:31.098Z,54.08
2022-11-23T05:19:59.149Z,54.23
2022-11-23T05:22:28.157Z,54.31
2022-11-23T05:24:56.072Z,54.10
2022-11-23T05:27:25.987Z,54.23
2022-11-23T05:29:53.910Z,53.90
2022-11-23T05:32:21.832Z,54.08
2022-11-23T05:34:50.089Z,54.19
2022-11-23T05:37:19.590Z,53.98
2022-11-23T05:39:54.139Z,54.32
2022-11-23T05:42:24.502Z,53.82
2022-11-23T05:44:55.618Z,53.90
2022-11-23T05:47:30.160Z,53.77
2022-11-23T05:49:58.189Z,53.67
2022-11-23T05:52:29.975Z,53.81
2022-11-23T05:54:58.690Z,53.79
2022-11-23T05:57:26.473Z,53.61
2022-11-23T05:59:54.343Z,53.66
2022-11-23T06:02:26.945Z,53.28
2022-11-23T06:05:00.819Z,53.56
2022-11-23T06:07:39.921Z,53.30
2022-11-23T06:10:12.382Z,53.23
2022-11-23T06:12:45.914Z,53.20
2022-11-23T06:15:18.350Z,53.07
2022-11-23T06:17:47.544Z,53.10
2022-11-23T06:20:20.255Z,53.08
2022-11-23T06:22:56.749Z,53.03
2022-11-23T06:25:26.264Z,52.99
2022-11-23T06:28:01.392Z,53.03
2022-11-23T06:30:37.018Z,52.74
2022-11-23T06:33:08.076Z,53.02
2022-11-23T06:36:00.068Z,52.83
2022-11-23T06:38:33.188Z,52.88
2022-11-23T06:41:09.052Z,53.05
2022-11-23T06:43:36.871Z,52.82
2022-11-23T06:46:06.921Z,52.79
2022-11-23T06:48:39.682Z,52.82
2022-11-23T06:51:08.578Z,52.85
2022-11-23T06:53:38.342Z,52.64
2022-11-23T06:56:08.959Z,52.55
2022-11-23T06:58:37.378Z,52.72
2022-11-23T07:01:11.055Z,52.48
2022-11-23T07:03:48.285Z,52.37
2022-11-23T07:06:23.240Z,52.27
2022-11-23T07:08:55.882Z,52.17
2022-11-23T07:11:50.017Z,52.35
2022-11-23T07:14:18.668Z,52.21
2022-11-23T07:16:48.857Z,52.21
2022-11-23T07:19:16.664Z,52.21
2022-11-23T07:21:45.994Z,51.93
2022-11-23T07:24:13.967Z,51.85
2022-11-23T07:26:42.172Z,52.08
2022-11-23T07:29:11.072Z,52.04
2022-11-23T07:31:39.131Z,51.69
2022-11-23T07:34:09.188Z,51.65
2022-11-23T07:36:37.246Z,51.73
2022-11-23T07:39:05.407Z,51.58
2022-11-23T07:41:33.597Z,51.75
2022-11-23T07:44:22.396Z,51.76
2022-11-23T07:46:55.762Z,51.69
2022-11-23T07:49:23.667Z,51.51
2022-11-23T07:51:51.476Z,51.35
2022-11-23T07:54:23.455Z,51.46
2022-11-23T07:56:51.592Z,51.03
2022-11-23T07:59:19.362Z,51.42
2022-11-23T08:01:51.186Z,51.38
2022-11-23T08:04:20.972Z,51.06
2022-11-23T08:06:48.755Z,51.24
2022-11-23T08:09:16.719Z,51.21
2022-11-23T08:11:44.532Z,51.05
2022-11-23T08:14:12.519Z,51.05
2022-11-23T08:16:40.313Z,51.03
2022-11-23T08:19:08.331Z,51.07
2022-11-23T08:21:36.193Z,50.63
2022-11-23T08:24:06.680Z,50.79
2022-11-23T08:26:34.680Z,50.71
2022-11-23T08:29:07.240Z,50.93
2022-11-23T08:31:35.735Z,50.86
2022-11-23T08:34:03.928Z,50.52
2022-11-23T08:36:31.977Z,50.78
2022-11-23T08:39:00.404Z,50.75
2022-11-23T08:41:28.626Z,50.72
2022-11-23T08:43:56.622Z,51.31
2022-11-23T08:46:25.029Z,51.02
2022-11-23T08:48:52.841Z,50.84
2022-11-23T08:51:23.189Z,50.45
2022-11-23T08:53:51.966Z,50.10
2022-11-23T08:56:20.203Z,50.72
2022-11-23T08:58:48.143Z,50.83
2022-11-23T09:01:17.535Z,50.79
2022-11-23T09:03:46.203Z,50.30
2022-11-23T09:06:14.083Z,50.65
2022-11-23T09:08:41.936Z,50.60
2022-11-23T09:11:14.463Z,50.44
2022-11-23T09:13:42.348Z,50.56
2022-11-23T09:16:10.648Z,50.03
2022-11-23T09:18:38.637Z,50.24
2022-11-23T09:21:06.588Z,50.15
2022-11-23T09:23:34.635Z,50.75
2022-11-23T09:26:05.012Z,50.16
2022-11-23T09:28:33.437Z,50.38
2022-11-23T09:31:04.751Z,49.84
2022-11-23T09:33:32.596Z,50.19
2022-11-23T09:36:03.433Z,50.04
2022-11-23T09:38:55.202Z,49.73
2022-11-23T09:42:00.636Z,50.35
2022-11-23T09:45:01.470Z,50.10
2022-11-23T09:48:05.762Z,50.29
2022-11-23T09:51:04.279Z,49.86
2022-11-23T09:54:04.211Z,49.99
2022-11-23T09:56:37.454Z,50.20
2022-11-23T09:59:34.976Z,50.47
2022-11-23T10:02:03.114Z,50.14
2022-11-23T10:04:35.577Z,49.99
2022-11-23T10:07:25.719Z,49.69
2022-11-23T10:10:24.338Z,49.65
2022-11-23T10:12:59.729Z,49.15
2022-11-23T10:15:38.141Z,49.51
2022-11-23T10:18:58.236Z,49.68
2022-11-23T10:22:27.783Z,49.50
2022-11-23T10:24:55.711Z,48.74
2022-11-23T10:27:25.242Z,48.81
2022-11-23T10:29:56.588Z,48.97
2022-11-23T10:32:35.153Z,49.17
2022-11-23T10:35:35.635Z,49.17
2022-11-23T10:38:20.326Z,49.19
2022-11-23T10:41:12.378Z,49.08
2022-11-23T10:44:02.907Z,48.83
2022-11-23T10:46:37.320Z,48.47
2022-11-23T10:49:26.228Z,48.90
2022-11-23T10:52:05.285Z,48.99
2022-11-23T10:54:46.128Z,48.66
2022-11-23T10:57:34.858Z,48.34
2022-11-23T11:00:16.176Z,48.30
2022-11-23T11:02:54.886Z,48.00
2022-11-23T11:08:35.929Z,47.71
2022-11-23T11:11:22.041Z,47.23
2022-11-23T11:13:50.047Z,47.04
2022-11-23T11:16:33.513Z,47.33
2022-11-23T11:19:21.220Z,47.58
2022-11-23T11:21:49.192Z,46.93
2022-11-23T11:24:26.206Z,46.92
2022-11-23T11:27:03.834Z,47.17
2022-11-23T11:29:38.989Z,46.69
2022-11-23T11:32:18.566Z,46.35
2022-11-23T11:35:26.007Z,47.07
2022-11-23T11:38:02.068Z,46.06
2022-11-23T11:40:45.312Z,46.23
2022-11-23T11:43:33.574Z,46.42
2022-11-23T11:46:29.142Z,45.77
2022-11-23T11:49:20.865Z,46.26
2022-11-23T11:52:15.132Z,46.18
2022-11-23T11:55:03.056Z,45.94
2022-11-23T11:57:43.659Z,45.70
2022-11-23T12:00:17.489Z,45.93
2022-11-23T12:03:16.270Z,45.84
2022-11-23T12:05:55.794Z,45.92
2022-11-23T12:08:33.839Z,45.88
2022-11-23T12:11:02.379Z,45.26
2022-11-23T12:13:35.266Z,45.44
2022-11-23T12:17:10.260Z,45.80
2022-11-23T12:19:54.769Z,45.69
2022-11-23T12:22:50.683Z,45.22
2022-11-23T12:25:41.974Z,45.52
2022-11-23T12:28:36.593Z,44.77
2022-11-23T12:31:31.458Z,45.18
2022-11-23T12:34:46.170Z,44.65
2022-11-23T12:37:44.759Z,44.17
2022-11-23T12:40:42.165Z,44.23
2022-11-23T12:43:36.776Z,43.03
2022-11-23T12:46:13.642Z,42.17
2022-11-23T12:49:09.561Z,42.92
2022-11-23T12:51:47.846Z,42.44
2022-11-23T12:55:15.007Z,43.00
2022-11-23T12:58:00.389Z,42.85
2022-11-23T13:00:36.367Z,42.59
2022-11-23T13:03:33.846Z,42.86
2022-11-23T13:06:27.709Z,42.55
2022-11-23T13:09:16.561Z,42.44
2022-11-23T13:11:53.061Z,42.33
2022-11-23T13:14:47.123Z,42.46
2022-11-23T13:17:58.081Z,42.56
2022-11-23T13:20:37.753Z,42.70
2022-11-23T13:23:06.928Z,42.33
2022-11-23T13:25:34.791Z,41.87
2022-11-23T13:28:31.034Z,42.56
2022-11-23T13:31:17.109Z,41.91
2022-11-23T13:33:48.786Z,41.96
2022-11-23T13:37:12.302Z,42.16
2022-11-23T13:40:59.571Z,42.44
2022-11-23T13:43:38.693Z,41.51
2022-11-23T13:46:31.617Z,41.96
2022-11-23T13:49:00.839Z,41.49
2022-11-23T13:51:35.001Z,41.54
2022-11-23T13:54:24.927Z,41.61
2022-11-23T13:57:05.081Z,41.43
2022-11-23T13:59:34.986Z,41.14
2022-11-23T14:02:08.871Z,41.43
2022-11-23T14:04:44.712Z,41.59
2022-11-23T14:07:43.635Z,41.27
2022-11-23T14:10:23.549Z,40.80
2022-11-23T14:13:12.424Z,41.24
2022-11-23T14:15:45.376Z,41.53
2022-11-23T14:18:50.324Z,41.59
2022-11-23T14:21:29.623Z,41.13
2022-11-23T14:24:28.991Z,41.27
2022-11-23T14:27:47.657Z,41.34
2022-11-23T14:30:59.792Z,41.70
2022-11-23T14:33:55.786Z,41.83
2022-11-23T14:36:51.708Z,41.51
2022-11-23T14:39:50.171Z,41.57
2022-11-23T14:42:23.058Z,41.39
2022-11-23T14:44:52.472Z,41.32
2022-11-23T14:47:29.940Z,41.70
2022-11-23T14:49:58.435Z,41.56
2022-11-23T14:52:37.106Z,41.70
2022-11-23T14:55:07.008Z,41.55
2022-11-23T14:57:44.810Z,41.75
2022-11-23T15:00:41.913Z,41.90
2022-11-23T15:03:49.319Z,41.86
2022-11-23T15:06:18.547Z,41.99
2022-11-23T15:08:57.537Z,42.17
2022-11-23T15:11:29.444Z,42.09
2022-11-23T15:14:03.499Z,42.28
2022-11-23T15:16:42.570Z,42.71
2022-11-23T15:19:28.563Z,42.35
2022-11-23T15:21:57.469Z,42.71
2022-11-23T15:24:27.228Z,42.63
2022-11-23T15:27:12.117Z,42.70
2022-11-23T15:29:40.993Z,42.95
2022-11-23T15:32:34.170Z,43.25
2022-11-23T15:35:07.927Z,43.23
2022-11-23T15:38:04.333Z,43.34
2022-11-23T15:40:36.739Z,43.36
2022-11-23T15:43:04.906Z,43.74
2022-11-23T15:45:41.734Z,43.48
2022-11-23T15:48:18.267Z,43.66
2022-11-23T15:51:05.510Z,43.89
2022-11-23T15:53:47.518Z,43.65
2022-11-23T15:56:31.423Z,43.58
2022-11-23T15:59:06.313Z,43.74
2022-11-23T16:01:34.080Z,43.70
2022-11-23T16:04:04.551Z,43.55
2022-11-23T16:06:42.280Z,43.79
2022-11-23T16:09:53.304Z,43.73
2022-11-23T16:12:34.055Z,43.82
2022-11-23T16:15:37.943Z,43.99
2022-11-23T16:18:31.976Z,44.20
2022-11-23T16:21:04.462Z,43.88
2022-11-23T16:24:04.221Z,44.08
2022-11-23T16:26:34.093Z,43.92
2022-11-23T16:29:02.478Z,43.87
2022-11-23T16:31:39.666Z,44.08
2022-11-23T16:34:17.764Z,43.79
2022-11-23T16:36:45.912Z,44.01
2022-11-23T16:39:14.820Z,44.00
2022-11-23T16:41:42.795Z,44.35
2022-11-23T16:44:10.613Z,44.40
2022-11-23T16:46:43.289Z,45.17
2022-11-23T16:49:23.658Z,45.38
2022-11-23T16:51:57.075Z,45.72
2022-11-23T16:54:25.761Z,45.66
2022-11-23T16:56:53.858Z,45.92
2022-11-23T16:59:23.788Z,45.18
2022-11-23T17:01:56.954Z,45.82
2022-11-23T17:04:26.407Z,45.56
2022-11-23T17:06:54.523Z,46.65
2022-11-23T17:09:22.313Z,46.01
2022-11-23T17:11:50.981Z,46.58
2022-11-23T17:14:20.647Z,46.82
2022-11-23T17:16:50.058Z,46.58
2022-11-23T17:19:20.642Z,47.16
2022-11-23T17:21:48.690Z,47.37
2022-11-23T17:24:16.549Z,47.30
2022-11-23T17:26:52.765Z,47.78
2022-11-23T17:29:21.401Z,47.92
2022-11-23T17:31:50.777Z,48.29
2022-11-23T17:34:18.608Z,48.50
2022-11-23T17:36:49.662Z,48.32
2022-11-23T17:39:24.580Z,48.31
2022-11-23T17:41:52.486Z,48.24
2022-11-23T17:44:20.795Z,48.76
2022-11-23T17:46:50.887Z,48.91
2022-11-23T17:49:20.211Z,48.75
2022-11-23T17:51:47.959Z,48.99
2022-11-23T17:54:15.856Z,49.02
2022-11-23T17:56:43.643Z,49.29
2022-11-23T17:59:11.514Z,49.73
2022-11-23T18:01:40.113Z,50.15
2022-11-23T18:04:20.295Z,49.88
2022-11-23T18:06:48.137Z,50.33
2022-11-23T18:09:15.912Z,50.63
2022-11-23T18:11:43.814Z,50.39
2022-11-23T18:14:11.604Z,50.80
2022-11-23T18:16:39.545Z,50.64
2022-11-23T18:19:07.615Z,50.81
2022-11-23T18:21:35.409Z,50.69
2022-11-23T18:24:04.836Z,50.98
2022-11-23T18:26:32.866Z,51.17
2022-11-23T18:29:00.645Z,51.36
2022-11-23T18:31:28.986Z,51.28
2022-11-23T18:33:56.934Z,51.36
2022-11-23T18:36:24.702Z,51.55
2022-11-23T18:38:52.522Z,51.47
2022-11-23T18:41:22.154Z,51.56
2022-11-23T18:43:50.376Z,51.49
2022-11-23T18:46:21.438Z,51.63
2022-11-23T18:48:50.398Z,51.64
2022-11-23T18:51:18.773Z,51.75
2022-11-23T18:53:47.923Z,51.97
2022-11-23T18:56:15.972Z,51.96
2022-11-23T18:58:45.789Z,51.91
2022-11-23T19:01:17.875Z,52.49
2022-11-23T19:03:48.839Z,52.54
2022-11-23T19:06:19.028Z,51.97
2022-11-23T19:08:50.837Z,52.11
2022-11-23T19:11:22.447Z,52.34
2022-11-23T19:13:55.856Z,52.68
2022-11-23T19:16:31.339Z,52.27
2022-11-23T19:19:05.363Z,52.84
2022-11-23T19:21:35.481Z,52.92
2022-11-23T19:24:04.220Z,53.26
2022-11-23T19:26:32.720Z,53.61
2022-11-23T19:29:00.658Z,53.31
2022-11-23T19:31:31.587Z,53.98
2022-11-23T19:34:10.482Z,53.49
2022-11-23T19:36:38.417Z,53.66
2022-11-23T19:39:08.327Z,54.55
2022-11-23T19:41:36.107Z,54.39
2022-11-23T19:44:04.636Z,55.06
2022-11-23T19:46:32.987Z,54.77
2022-11-23T19:49:01.006Z,54.90
2022-11-23T19:51:29.165Z,55.40
2022-11-23T19:53:57.719Z,55.25
2022-11-23T19:56:29.362Z,56.20
2022-11-23T19:59:01.565Z,56.24
2022-11-23T20:01:32.166Z,56.79
2022-11-23T20:04:08.321Z,57.83
2022-11-23T20:06:42.521Z,60.34
2022-11-23T20:09:19.478Z,62.89
2022-11-23T20:11:51.014Z,62.45
2022-11-23T20:14:19.773Z,61.74
2022-11-23T20:16:47.971Z,62.77
2022-11-23T20:19:15.981Z,62.99
2022-11-23T20:21:43.829Z,61.48
2022-11-23T20:24:13.877Z,62.12
2022-11-23T20:26:42.391Z,60.78
2022-11-23T20:29:10.776Z,60.84
2022-11-23T20:31:39.237Z,63.02
2022-11-23T20:34:09.995Z,62.84
2022-11-23T20:36:40.173Z,63.09
2022-11-23T20:39:10.919Z,62.67
2022-11-23T20:41:39.157Z,64.14
2022-11-23T20:44:13.408Z,62.77
2022-11-23T20:49:31.109Z,62.54
2022-11-23T20:51:59.822Z,63.05
2022-11-23T20:54:28.016Z,62.15
2022-11-23T20:56:58.057Z,62.27
2022-11-23T20:59:26.382Z,62.06
2022-11-23T21:01:54.263Z,62.41
2022-11-23T21:04:22.114Z,61.58
2022-11-23T21:06:49.836Z,61.14
2022-11-23T21:09:17.760Z,62.29
2022-11-23T21:12:04.211Z,62.66
2022-11-23T21:14:33.033Z,63.01
2022-11-23T21:17:01.175Z,63.81
2022-11-23T21:19:32.428Z,63.51
2022-11-23T21:22:07.874Z,63.14
2022-11-23T21:24:36.438Z,63.18
2022-11-23T21:27:07.992Z,63.75
2022-11-23T21:29:35.898Z,64.21
2022-11-23T21:32:04.198Z,63.79
2022-11-23T21:34:32.749Z,64.34
2022-11-23T21:37:01.065Z,64.26
2022-11-23T21:39:32.369Z,64.79
2022-11-23T21:42:00.166Z,62.29
2022-11-23T21:44:27.974Z,63.00
2022-11-23T21:46:55.998Z,63.69
2022-11-23T21:49:25.684Z,64.17
2022-11-23T21:51:53.478Z,63.08
2022-11-23T21:54:21.215Z,63.28
2022-11-23T21:56:49.043Z,63.01
2022-11-23T21:59:16.827Z,62.76
2022-11-23T22:01:44.589Z,62.51
2022-11-23T22:04:15.730Z,61.34
2022-11-23T22:06:45.287Z,62.34
2022-11-23T22:09:13.988Z,64.03
2022-11-23T22:11:43.788Z,62.62
2022-11-23T22:14:15.140Z,63.44
2022-11-23T22:16:54.115Z,62.62
2022-11-23T22:19:21.929Z,61.69
2022-11-23T22:21:49.743Z,60.51
2022-11-23T22:24:20.175Z,60.64
2022-11-23T22:26:48.209Z,60.40
2022-11-23T22:29:16.364Z,60.80
2022-11-23T22:31:44.466Z,60.79
2022-11-23T22:34:13.908Z,59.73
2022-11-23T22:36:42.485Z,60.19
2022-11-23T22:39:10.363Z,60.22
2022-11-23T22:41:38.696Z,59.25
2022-11-23T22:44:09.608Z,60.23
2022-11-23T22:46:38.985Z,60.21
2022-11-23T22:49:07.383Z,59.91
2022-11-23T22:51:35.248Z,59.08
2022-11-23T22:54:03.688Z,59.37
2022-11-23T22:56:31.850Z,58.71
2022-11-23T22:59:00.217Z,58.46
2022-11-23T23:01:30.844Z,58.49
2022-11-23T23:04:01.769Z,58.31
2022-11-23T23:06:34.832Z,58.25
2022-11-23T23:09:06.260Z,57.93
2022-11-23T23:11:35.619Z,58.36
2022-11-23T23:14:03.884Z,58.23
2022-11-23T23:16:32.017Z,57.78
2022-11-23T23:18:59.952Z,57.83
2022-11-23T23:21:29.514Z,58.75
2022-11-23T23:24:01.204Z,58.09
2022-11-23T23:26:30.067Z,58.36
2022-11-23T23:29:00.556Z,58.18
2022-11-23T23:31:30.038Z,58.20
2022-11-23T23:33:59.939Z,57.73
2022-11-23T23:36:28.109Z,57.63
2022-11-23T23:38:57.522Z,57.34
2022-11-23T23:41:25.332Z,57.28
2022-11-23T23:43:53.134Z,56.80
2022-11-23T23:46:21.073Z,56.92
2022-11-23T23:48:48.885Z,56.95
2022-11-23T23:51:20.053Z,56.77
2022-11-23T23:53:48.703Z,56.60
2022-11-23T23:56:22.311Z,56.95
2022-11-23T23:58:51.095Z,56.65
